Terminal Aerodrome Forecast
Issued by NWS

Home | Current Version | Previous Version | Text Only | Print | Product List | Glossary On
Versions: 1 2 3 4 5 6 7 8 9 10 11 12
184
FTUS43 KJKL 270538
TAFSME
TAF
KSME 270538Z 2706/2806 18004KT P6SM SCT250 WS020/18040KT
     FM270900 18005KT P6SM VCSH BKN200
     FM271000 18006KT P6SM -SHRA OVC050
     FM271300 21009KT P6SM BKN025
     FM272000 25011KT P6SM SCT040
     FM280100 27005KT P6SM FEW250=

USA.gov is the U.S. government's official web portal to all federal, state and local government web resources and services.